Time;durP1;ratioP1;P1;durP2;ratioP2;P2;SDS_P1;SDS_P2;PMS_P1;PMS_P2;Temp;Humidity;BMP_temperature;BMP_pressure;BME280_temperature;BME280_humidity;BME280_pressure;Samples;Min_cycle;Max_cycle;Signal;HPM_P1;HPM_P2
2023/03/31 00:00:51;;;;;;;5.77;2.30;;;;;;;;;;5052457;28;20789;-65
2023/03/31 00:03:22;;;;;;;4.67;2.23;;;;;;;;;;5058748;28;20212;-65
2023/03/31 00:05:58;;;;;;;5.87;2.00;;;;;;;;;;5057681;28;20220;-64
2023/03/31 00:08:28;;;;;;;6.50;3.30;;;;;;;;;;5064805;28;20267;-65
2023/03/31 00:11:00;;;;;;;9.07;2.47;;;;;;;;;;5045750;28;20961;-64
2023/03/31 00:13:28;;;;;;;5.50;2.30;;;;;;;;;;5052279;28;20209;-64
2023/03/31 00:16:13;;;;;;;6.57;2.30;;;;;;;;;;5050489;28;20240;-65
2023/03/31 00:18:49;;;;;;;2.50;1.93;;;;;;;;;;5064959;28;20213;-65
2023/03/31 00:21:24;;;;;;;6.53;2.93;;;;;;;;;;5064252;28;20304;-65
2023/03/31 00:23:59;;;;;;;7.40;2.50;;;;;;;;;;5050803;28;20285;-64
2023/03/31 00:26:27;;;;;;;9.53;2.47;;;;;;;;;;5072009;28;20240;-64
2023/03/31 00:28:54;;;;;;;6.30;2.27;;;;;;;;;;5061297;28;20241;-64
2023/03/31 00:31:22;;;;;;;4.40;2.30;;;;;;;;;;5068350;28;20212;-64
2023/03/31 00:33:50;;;;;;;6.93;2.57;;;;;;;;;;5062159;28;20488;-63
2023/03/31 00:36:20;;;;;;;5.00;2.40;;;;;;;;;;5056102;28;20229;-63
2023/03/31 00:38:48;;;;;;;5.13;2.33;;;;;;;;;;5046640;28;20200;-63
2023/03/31 00:41:15;;;;;;;8.50;2.67;;;;;;;;;;5050001;28;20732;-63
2023/03/31 00:44:02;;;;;;;5.80;2.53;;;;;;;;;;5047650;28;20204;-65
2023/03/31 00:46:34;;;;;;;5.00;2.53;;;;;;;;;;5048174;28;20323;-63
2023/03/31 00:49:02;;;;;;;4.93;2.80;;;;;;;;;;5073058;28;20209;-64
2023/03/31 00:51:31;;;;;;;6.93;2.30;;;;;;;;;;5065647;28;20740;-65
2023/03/31 00:54:03;;;;;;;4.83;2.27;;;;;;;;;;5053183;28;20316;-64
2023/03/31 00:56:36;;;;;;;5.33;2.47;;;;;;;;;;5043127;28;20486;-64
2023/03/31 00:59:06;;;;;;;5.27;2.20;;;;;;;;;;5050609;28;20310;-64
2023/03/31 01:01:34;;;;;;;6.03;2.47;;;;;;;;;;5048386;28;20243;-65
2023/03/31 01:04:04;;;;;;;6.23;2.60;;;;;;;;;;5052332;28;20208;-63
2023/03/31 01:06:32;;;;;;;5.57;2.60;;;;;;;;;;5066988;28;20620;-63
2023/03/31 01:09:02;;;;;;;7.87;2.53;;;;;;;;;;5054215;28;20606;-65
2023/03/31 01:11:30;;;;;;;5.10;2.70;;;;;;;;;;5048444;28;20569;-65
2023/03/31 01:13:58;;;;;;;7.87;2.57;;;;;;;;;;5047855;28;20208;-63
2023/03/31 01:16:25;;;;;;;5.70;2.40;;;;;;;;;;5051623;28;20252;-65
2023/03/31 01:18:56;;;;;;;5.53;2.57;;;;;;;;;;5048759;28;20216;-65
2023/03/31 01:21:50;;;;;;;6.60;2.57;;;;;;;;;;5069022;28;20222;-63
2023/03/31 01:24:36;;;;;;;4.70;2.60;;;;;;;;;;5068661;28;20262;-63
2023/03/31 01:27:05;;;;;;;5.17;2.73;;;;;;;;;;5049071;28;20335;-63
2023/03/31 01:29:42;;;;;;;4.90;2.83;;;;;;;;;;5062909;28;20216;-64
2023/03/31 01:32:09;;;;;;;8.33;3.13;;;;;;;;;;5063893;28;20745;-63
2023/03/31 01:34:37;;;;;;;6.27;2.80;;;;;;;;;;5057755;28;20220;-64
2023/03/31 01:37:13;;;;;;;4.20;2.47;;;;;;;;;;5072769;28;20797;-64
2023/03/31 01:39:56;;;;;;;7.23;2.60;;;;;;;;;;5054334;28;20576;-64
2023/03/31 01:42:30;;;;;;;5.90;2.80;;;;;;;;;;5056233;28;21269;-64
2023/03/31 01:44:57;;;;;;;8.37;3.00;;;;;;;;;;5054118;28;20691;-64
2023/03/31 01:47:39;;;;;;;6.20;2.77;;;;;;;;;;5054458;28;20229;-64
2023/03/31 01:50:15;;;;;;;8.03;2.73;;;;;;;;;;5045637;28;20208;-65
2023/03/31 01:52:57;;;;;;;7.73;3.00;;;;;;;;;;5052613;28;20205;-64
2023/03/31 01:55:29;;;;;;;5.97;3.00;;;;;;;;;;5052356;28;20295;-65
2023/03/31 01:58:02;;;;;;;6.47;3.00;;;;;;;;;;5047535;28;20789;-64
2023/03/31 02:00:33;;;;;;;7.17;3.10;;;;;;;;;;5066978;28;20214;-63
2023/03/31 02:03:06;;;;;;;10.03;3.70;;;;;;;;;;5062890;28;20220;-63
2023/03/31 02:05:49;;;;;;;8.70;3.47;;;;;;;;;;5047371;28;20620;-65
2023/03/31 02:08:21;;;;;;;10.27;3.47;;;;;;;;;;5052128;28;20897;-64
2023/03/31 02:10:49;;;;;;;7.50;3.10;;;;;;;;;;5048065;28;20200;-66
2023/03/31 02:13:17;;;;;;;8.13;3.10;;;;;;;;;;5047080;28;20298;-63
2023/03/31 02:15:46;;;;;;;5.17;3.37;;;;;;;;;;5058837;28;20623;-65
2023/03/31 02:18:17;;;;;;;8.37;3.70;;;;;;;;;;5052377;28;20225;-64
2023/03/31 02:20:46;;;;;;;8.60;3.00;;;;;;;;;;5047086;28;20217;-64
2023/03/31 02:23:15;;;;;;;10.57;4.17;;;;;;;;;;5052408;28;20220;-64
2023/03/31 02:25:46;;;;;;;7.77;3.80;;;;;;;;;;5053075;28;20228;-63
2023/03/31 02:28:18;;;;;;;5.87;3.67;;;;;;;;;;5061057;28;20217;-63
2023/03/31 02:30:51;;;;;;;6.20;3.80;;;;;;;;;;5064783;28;20626;-66
2023/03/31 02:33:18;;;;;;;9.43;3.53;;;;;;;;;;5058695;28;20292;-64
2023/03/31 02:35:46;;;;;;;8.40;4.07;;;;;;;;;;5043891;28;20261;-64
2023/03/31 02:38:13;;;;;;;7.40;4.07;;;;;;;;;;5045300;28;20266;-64
2023/03/31 02:40:41;;;;;;;7.17;3.60;;;;;;;;;;5042027;28;20834;-66
2023/03/31 02:43:08;;;;;;;8.77;3.93;;;;;;;;;;5054649;28;20663;-64
2023/03/31 02:45:41;;;;;;;8.30;4.07;;;;;;;;;;5050566;28;20995;-65
2023/03/31 02:48:16;;;;;;;8.13;4.60;;;;;;;;;;5051230;28;20239;-65
2023/03/31 02:51:00;;;;;;;6.03;3.90;;;;;;;;;;5050814;28;20227;-65
2023/03/31 02:53:43;;;;;;;5.50;3.83;;;;;;;;;;5043233;28;20204;-65
2023/03/31 02:56:21;;;;;;;7.97;4.37;;;;;;;;;;5043396;28;20255;-65
2023/03/31 02:58:57;;;;;;;7.07;3.97;;;;;;;;;;5047001;28;20735;-64
2023/03/31 03:01:34;;;;;;;8.63;4.10;;;;;;;;;;5048084;28;20205;-64
2023/03/31 03:04:05;;;;;;;8.57;4.00;;;;;;;;;;5044581;28;20212;-64
2023/03/31 03:06:43;;;;;;;11.47;7.57;;;;;;;;;;5059607;28;20850;-64
2023/03/31 03:09:11;;;;;;;7.40;4.93;;;;;;;;;;5062604;28;20680;-65
2023/03/31 03:11:38;;;;;;;8.43;4.87;;;;;;;;;;5061906;28;20296;-65
2023/03/31 03:14:12;;;;;;;9.13;4.50;;;;;;;;;;5037915;28;20216;-64
2023/03/31 03:16:43;;;;;;;9.23;5.53;;;;;;;;;;5047308;28;20249;-64
2023/03/31 03:19:17;;;;;;;8.90;6.27;;;;;;;;;;5057692;28;20221;-65
2023/03/31 03:21:46;;;;;;;12.17;4.83;;;;;;;;;;5045890;28;20217;-64
2023/03/31 03:24:15;;;;;;;10.40;5.00;;;;;;;;;;5065745;28;20245;-66
2023/03/31 03:26:47;;;;;;;11.17;4.50;;;;;;;;;;5063181;28;20242;-66
2023/03/31 03:29:14;;;;;;;9.07;4.23;;;;;;;;;;5044682;28;20205;-66
2023/03/31 03:31:42;;;;;;;11.30;4.60;;;;;;;;;;5042533;28;20674;-64
2023/03/31 03:34:10;;;;;;;10.97;4.67;;;;;;;;;;5045821;28;20736;-65
2023/03/31 03:36:39;;;;;;;9.57;4.80;;;;;;;;;;5071538;28;21385;-65
2023/03/31 03:39:07;;;;;;;7.73;4.50;;;;;;;;;;5049851;28;20201;-65
2023/03/31 03:41:35;;;;;;;7.97;4.80;;;;;;;;;;5047517;28;20218;-63
2023/03/31 03:44:02;;;;;;;8.27;4.30;;;;;;;;;;5050992;28;20305;-65
2023/03/31 03:46:30;;;;;;;8.97;5.17;;;;;;;;;;5051806;28;20324;-64
2023/03/31 03:48:57;;;;;;;10.67;6.70;;;;;;;;;;5037632;28;20456;-64
2023/03/31 03:51:25;;;;;;;14.23;6.17;;;;;;;;;;5046461;28;20237;-65
2023/03/31 03:53:52;;;;;;;10.70;5.43;;;;;;;;;;5058956;28;20271;-63
2023/03/31 03:56:20;;;;;;;9.83;5.47;;;;;;;;;;5072391;28;20228;-64
2023/03/31 03:58:48;;;;;;;12.70;5.50;;;;;;;;;;5059009;28;20209;-64
2023/03/31 04:01:15;;;;;;;10.67;5.03;;;;;;;;;;5049929;28;22227;-64
2023/03/31 04:03:43;;;;;;;5.20;4.70;;;;;;;;;;5050344;28;20601;-65
2023/03/31 04:06:10;;;;;;;8.30;5.00;;;;;;;;;;5044485;28;20236;-65
2023/03/31 04:08:39;;;;;;;10.10;5.17;;;;;;;;;;5076212;28;20213;-64
2023/03/31 04:11:17;;;;;;;8.17;5.67;;;;;;;;;;5056466;28;20220;-63
2023/03/31 04:13:45;;;;;;;10.23;5.47;;;;;;;;;;5056160;28;20201;-64
2023/03/31 04:16:13;;;;;;;8.80;5.63;;;;;;;;;;5066311;28;20323;-65
2023/03/31 04:18:44;;;;;;;7.87;5.73;;;;;;;;;;5065800;28;20216;-64
2023/03/31 04:21:21;;;;;;;8.83;5.80;;;;;;;;;;5065091;28;20213;-64
2023/03/31 04:23:57;;;;;;;11.30;6.50;;;;;;;;;;5061423;28;20204;-65
2023/03/31 04:26:30;;;;;;;12.20;6.40;;;;;;;;;;5079262;28;20585;-65
2023/03/31 04:29:01;;;;;;;10.30;6.63;;;;;;;;;;5061989;28;20259;-65
2023/03/31 04:31:29;;;;;;;12.40;7.23;;;;;;;;;;5075408;28;20205;-66
2023/03/31 04:34:01;;;;;;;14.13;7.60;;;;;;;;;;5053043;28;20599;-65
2023/03/31 04:36:30;;;;;;;11.50;7.40;;;;;;;;;;5045378;28;20278;-63
2023/03/31 04:38:58;;;;;;;15.77;6.90;;;;;;;;;;5048747;28;20457;-63
2023/03/31 04:41:28;;;;;;;61.37;29.27;;;;;;;;;;5043228;28;20204;-64
2023/03/31 04:43:56;;;;;;;10.50;8.20;;;;;;;;;;5043991;28;21153;-63
2023/03/31 04:46:24;;;;;;;13.90;7.70;;;;;;;;;;5043479;28;20745;-64
2023/03/31 04:48:52;;;;;;;15.47;8.43;;;;;;;;;;5042545;28;20217;-64
2023/03/31 04:51:19;;;;;;;14.13;8.70;;;;;;;;;;5040336;28;20315;-63
2023/03/31 04:53:47;;;;;;;13.53;8.03;;;;;;;;;;5049578;28;20216;-63
2023/03/31 04:56:14;;;;;;;12.17;7.13;;;;;;;;;;5045286;28;20318;-64
2023/03/31 04:58:43;;;;;;;14.73;6.70;;;;;;;;;;5062221;28;20233;-64
2023/03/31 05:01:16;;;;;;;11.43;7.33;;;;;;;;;;5041091;28;20785;-64
2023/03/31 05:03:46;;;;;;;12.70;6.77;;;;;;;;;;5065126;28;20200;-64
2023/03/31 05:06:14;;;;;;;13.43;7.97;;;;;;;;;;5047947;28;20260;-64
2023/03/31 05:08:42;;;;;;;11.70;7.30;;;;;;;;;;5070350;28;20666;-64
2023/03/31 05:11:10;;;;;;;11.43;7.50;;;;;;;;;;5049236;28;20205;-65
2023/03/31 05:13:37;;;;;;;16.63;8.07;;;;;;;;;;5045494;28;20292;-64
2023/03/31 05:16:09;;;;;;;14.00;7.17;;;;;;;;;;5049940;28;20217;-63
2023/03/31 05:18:37;;;;;;;17.73;8.47;;;;;;;;;;5047687;28;20205;-68
2023/03/31 05:21:09;;;;;;;10.77;7.00;;;;;;;;;;5050488;28;20303;-65
2023/03/31 05:23:36;;;;;;;15.37;7.30;;;;;;;;;;5060619;28;20430;-66
2023/03/31 05:26:04;;;;;;;11.67;7.47;;;;;;;;;;5049110;28;20235;-64
2023/03/31 05:28:32;;;;;;;15.53;7.53;;;;;;;;;;5048335;28;20572;-63
2023/03/31 05:31:00;;;;;;;14.57;7.00;;;;;;;;;;5065786;28;20210;-63
2023/03/31 05:33:28;;;;;;;15.03;7.80;;;;;;;;;;5048299;28;20813;-64
2023/03/31 05:35:56;;;;;;;11.53;7.40;;;;;;;;;;5045860;28;20431;-64
2023/03/31 05:38:27;;;;;;;11.57;7.13;;;;;;;;;;5046041;28;20213;-63
2023/03/31 05:40:55;;;;;;;10.77;7.10;;;;;;;;;;5070896;28;20299;-64
2023/03/31 05:43:23;;;;;;;14.23;8.07;;;;;;;;;;5048544;28;20840;-65
2023/03/31 05:45:50;;;;;;;13.07;7.00;;;;;;;;;;5068838;28;20691;-64
2023/03/31 05:48:20;;;;;;;13.83;7.13;;;;;;;;;;5052178;28;20691;-64
2023/03/31 05:50:49;;;;;;;12.70;7.10;;;;;;;;;;5066132;28;20220;-63
2023/03/31 05:53:16;;;;;;;11.10;7.37;;;;;;;;;;5042365;28;20213;-62
2023/03/31 05:55:43;;;;;;;14.93;7.50;;;;;;;;;;5035109;28;20315;-65
2023/03/31 05:58:12;;;;;;;15.20;7.73;;;;;;;;;;5062854;28;20216;-63
2023/03/31 06:00:39;;;;;;;13.10;7.67;;;;;;;;;;5049843;28;20671;-64
2023/03/31 06:03:06;;;;;;;10.10;7.50;;;;;;;;;;5053198;28;20281;-63
2023/03/31 06:05:35;;;;;;;11.77;7.83;;;;;;;;;;5051226;28;20209;-65
2023/03/31 06:08:03;;;;;;;12.60;7.47;;;;;;;;;;5059758;28;20583;-66
2023/03/31 06:10:30;;;;;;;11.57;8.30;;;;;;;;;;5065057;28;20291;-66
2023/03/31 06:12:57;;;;;;;9.33;7.27;;;;;;;;;;5042862;28;20295;-66
2023/03/31 06:15:25;;;;;;;12.27;7.83;;;;;;;;;;5061198;28;20672;-64
2023/03/31 06:17:52;;;;;;;13.63;8.17;;;;;;;;;;5040492;28;20251;-65
2023/03/31 06:20:20;;;;;;;13.80;8.17;;;;;;;;;;5048191;28;20209;-63
2023/03/31 06:22:54;;;;;;;14.80;8.60;;;;;;;;;;5049648;28;20203;-64
2023/03/31 06:25:22;;;;;;;16.00;7.70;;;;;;;;;;5081308;28;20217;-63
2023/03/31 06:27:49;;;;;;;15.53;9.13;;;;;;;;;;5063496;28;20228;-65
2023/03/31 06:30:16;;;;;;;13.73;8.20;;;;;;;;;;5067442;28;20254;-65
2023/03/31 06:32:44;;;;;;;12.67;7.83;;;;;;;;;;5074439;28;20209;-63
2023/03/31 06:35:11;;;;;;;12.70;7.70;;;;;;;;;;5046294;28;20201;-64
2023/03/31 06:37:39;;;;;;;18.03;7.87;;;;;;;;;;5062399;28;20954;-63
2023/03/31 06:40:07;;;;;;;13.03;6.97;;;;;;;;;;5035626;28;20208;-64
2023/03/31 06:42:34;;;;;;;13.37;6.80;;;;;;;;;;5047121;28;20235;-64
2023/03/31 06:45:02;;;;;;;11.30;6.57;;;;;;;;;;5054893;28;20224;-63
2023/03/31 06:47:31;;;;;;;9.50;7.13;;;;;;;;;;5047752;28;20235;-63
2023/03/31 06:49:59;;;;;;;14.93;8.30;;;;;;;;;;5047981;28;20219;-63
2023/03/31 06:52:26;;;;;;;13.80;9.90;;;;;;;;;;5044127;28;20583;-65
2023/03/31 06:54:53;;;;;;;16.43;9.60;;;;;;;;;;5044273;28;20237;-64
2023/03/31 06:57:21;;;;;;;12.23;8.87;;;;;;;;;;5042896;28;20255;-65
2023/03/31 06:59:48;;;;;;;14.80;8.37;;;;;;;;;;5037888;28;20670;-65
2023/03/31 07:02:17;;;;;;;16.47;8.77;;;;;;;;;;5033163;28;20212;-65
2023/03/31 07:04:44;;;;;;;11.80;8.60;;;;;;;;;;5045817;28;20219;-63
2023/03/31 07:07:12;;;;;;;14.67;8.27;;;;;;;;;;5029682;28;20240;-65
2023/03/31 07:09:39;;;;;;;9.53;7.37;;;;;;;;;;5031549;28;20678;-66
2023/03/31 07:12:09;;;;;;;11.40;7.63;;;;;;;;;;5032220;28;20275;-64
2023/03/31 07:14:36;;;;;;;10.37;5.93;;;;;;;;;;5029503;28;20254;-65
2023/03/31 07:17:03;;;;;;;5.23;2.47;;;;;;;;;;5033923;28;20446;-65
2023/03/31 07:19:31;;;;;;;2.30;1.90;;;;;;;;;;5039447;28;20698;-66
2023/03/31 07:21:58;;;;;;;1.70;1.60;;;;;;;;;;5031642;28;20763;-65
2023/03/31 07:24:26;;;;;;;2.17;1.80;;;;;;;;;;5032640;28;20217;-65
2023/03/31 07:26:53;;;;;;;3.13;2.20;;;;;;;;;;5039088;28;20375;-65
2023/03/31 07:29:21;;;;;;;1.50;1.40;;;;;;;;;;5064414;28;20383;-66
2023/03/31 07:31:48;;;;;;;1.27;1.20;;;;;;;;;;5044534;28;20994;-67
2023/03/31 07:34:16;;;;;;;1.37;1.20;;;;;;;;;;5048163;28;20209;-64
2023/03/31 07:36:44;;;;;;;1.07;1.00;;;;;;;;;;5042956;28;20239;-64
2023/03/31 07:39:11;;;;;;;2.50;1.40;;;;;;;;;;5059851;28;20319;-63
2023/03/31 07:41:39;;;;;;;1.90;1.50;;;;;;;;;;5045460;28;20201;-63
2023/03/31 07:44:07;;;;;;;1.17;1.10;;;;;;;;;;5054270;28;20212;-65
2023/03/31 07:46:34;;;;;;;1.80;1.30;;;;;;;;;;5053970;28;21012;-65
2023/03/31 07:49:02;;;;;;;0.93;0.93;;;;;;;;;;5059532;28;20211;-65
2023/03/31 07:51:29;;;;;;;1.87;1.10;;;;;;;;;;5051770;28;20209;-65
2023/03/31 07:53:56;;;;;;;1.10;0.97;;;;;;;;;;5042958;28;20505;-65
2023/03/31 07:56:24;;;;;;;1.60;1.30;;;;;;;;;;5058509;28;20895;-64
2023/03/31 07:58:51;;;;;;;1.10;1.10;;;;;;;;;;5048244;28;20682;-65
2023/03/31 08:01:24;;;;;;;1.47;1.20;;;;;;;;;;5041757;28;20209;-64
2023/03/31 08:03:54;;;;;;;3.20;1.00;;;;;;;;;;5058417;28;20200;-64
2023/03/31 08:06:23;;;;;;;2.87;1.20;;;;;;;;;;5043075;28;20602;-65
2023/03/31 08:08:52;;;;;;;1.87;1.23;;;;;;;;;;5045735;28;20216;-65
2023/03/31 08:11:20;;;;;;;1.87;1.10;;;;;;;;;;5052055;28;20344;-65
2023/03/31 08:13:47;;;;;;;2.70;1.10;;;;;;;;;;5073371;28;20193;-64
2023/03/31 08:16:16;;;;;;;1.30;1.17;;;;;;;;;;5063018;28;20216;-65
2023/03/31 08:18:43;;;;;;;0.97;0.97;;;;;;;;;;5061551;28;20210;-64
2023/03/31 08:21:11;;;;;;;1.20;1.10;;;;;;;;;;5048747;28;20201;-65
2023/03/31 08:23:38;;;;;;;1.07;1.00;;;;;;;;;;5040063;28;20212;-64
2023/03/31 08:26:17;;;;;;;2.00;1.20;;;;;;;;;;5055434;28;20233;-64
2023/03/31 08:28:48;;;;;;;1.07;1.07;;;;;;;;;;5075822;28;20205;-65
2023/03/31 08:31:17;;;;;;;2.93;1.30;;;;;;;;;;5062106;28;20193;-66
2023/03/31 08:33:45;;;;;;;1.70;1.10;;;;;;;;;;5057170;28;20603;-63
2023/03/31 08:36:13;;;;;;;2.10;1.00;;;;;;;;;;5043412;28;20233;-64
2023/03/31 08:38:41;;;;;;;1.97;1.00;;;;;;;;;;5062643;28;20205;-65
2023/03/31 08:41:27;;;;;;;1.00;1.00;;;;;;;;;;5045678;28;20335;-64
2023/03/31 08:43:56;;;;;;;1.00;0.90;;;;;;;;;;5052331;28;20205;-64
2023/03/31 08:46:24;;;;;;;1.50;1.20;;;;;;;;;;5041848;28;20674;-64
2023/03/31 08:48:54;;;;;;;2.03;1.20;;;;;;;;;;5047302;28;20739;-65
2023/03/31 08:51:29;;;;;;;1.23;1.07;;;;;;;;;;5054940;28;21294;-65
2023/03/31 08:54:06;;;;;;;1.07;0.90;;;;;;;;;;5046024;28;20208;-62
2023/03/31 08:56:38;;;;;;;1.57;1.00;;;;;;;;;;5035184;28;20889;-62
2023/03/31 08:59:07;;;;;;;1.70;1.07;;;;;;;;;;5036037;28;21166;-66
2023/03/31 09:01:35;;;;;;;2.73;1.50;;;;;;;;;;5045419;28;20212;-64
2023/03/31 09:04:24;;;;;;;1.60;1.30;;;;;;;;;;5048362;28;20822;-64
2023/03/31 09:06:58;;;;;;;3.10;1.27;;;;;;;;;;5059969;28;20225;-64
2023/03/31 09:09:44;;;;;;;2.83;1.53;;;;;;;;;;5037550;28;20211;-63
2023/03/31 09:12:16;;;;;;;1.80;1.20;;;;;;;;;;5036958;28;20197;-62
2023/03/31 09:14:49;;;;;;;2.80;1.40;;;;;;;;;;5040545;28;20885;-62
2023/03/31 09:17:26;;;;;;;3.30;1.23;;;;;;;;;;5033852;28;20240;-64
2023/03/31 09:19:59;;;;;;;2.70;1.30;;;;;;;;;;5041380;28;20470;-62
2023/03/31 09:22:32;;;;;;;1.63;1.23;;;;;;;;;;5046845;28;20662;-63
2023/03/31 09:24:59;;;;;;;2.03;1.30;;;;;;;;;;5059664;28;20210;-64
2023/03/31 09:27:30;;;;;;;3.77;1.20;;;;;;;;;;5059079;28;20228;-64
2023/03/31 09:30:04;;;;;;;2.57;1.30;;;;;;;;;;5050700;28;20317;-64
2023/03/31 09:32:32;;;;;;;2.10;1.20;;;;;;;;;;5036147;28;21461;-64
2023/03/31 09:35:02;;;;;;;1.37;1.27;;;;;;;;;;5040788;28;20298;-64
2023/03/31 09:37:32;;;;;;;1.40;1.20;;;;;;;;;;5030366;28;20232;-63
2023/03/31 09:40:00;;;;;;;2.87;1.40;;;;;;;;;;5030313;28;20233;-64
2023/03/31 09:42:28;;;;;;;1.67;1.20;;;;;;;;;;5043100;28;20233;-64
2023/03/31 09:44:55;;;;;;;2.90;1.37;;;;;;;;;;5038415;28;20236;-65
2023/03/31 09:47:23;;;;;;;3.77;1.30;;;;;;;;;;5036014;28;20240;-63
2023/03/31 09:49:50;;;;;;;3.23;1.40;;;;;;;;;;5030470;28;20200;-66
2023/03/31 09:52:30;;;;;;;3.23;1.40;;;;;;;;;;5031863;28;20208;-62
2023/03/31 09:55:02;;;;;;;2.63;1.20;;;;;;;;;;5054362;28;20204;-62
2023/03/31 09:57:35;;;;;;;2.50;1.30;;;;;;;;;;5032053;28;21476;-63
2023/03/31 10:00:15;;;;;;;4.97;1.80;;;;;;;;;;5060889;28;20682;-63
2023/03/31 10:02:44;;;;;;;3.23;1.07;;;;;;;;;;5043507;28;20227;-62
2023/03/31 10:05:20;;;;;;;2.60;1.20;;;;;;;;;;5028311;28;20446;-63
2023/03/31 10:07:48;;;;;;;2.43;1.20;;;;;;;;;;5028905;28;20366;-63
2023/03/31 10:10:30;;;;;;;2.43;1.13;;;;;;;;;;5043378;28;21848;-63
2023/03/31 10:13:00;;;;;;;2.63;1.50;;;;;;;;;;5027498;28;20229;-62
2023/03/31 10:15:28;;;;;;;1.63;1.23;;;;;;;;;;5032341;28;22109;-64
2023/03/31 10:17:58;;;;;;;4.47;1.60;;;;;;;;;;5046173;28;20444;-62
2023/03/31 10:20:33;;;;;;;2.73;1.43;;;;;;;;;;5036810;28;20200;-63
2023/03/31 10:23:15;;;;;;;3.30;1.37;;;;;;;;;;5037749;28;20973;-63
2023/03/31 10:25:43;;;;;;;3.17;1.33;;;;;;;;;;5038793;28;20291;-62
2023/03/31 10:28:12;;;;;;;3.30;1.40;;;;;;;;;;5047841;28;20282;-62
2023/03/31 10:30:40;;;;;;;4.00;1.57;;;;;;;;;;5060967;28;20228;-62
2023/03/31 10:33:13;;;;;;;2.60;1.20;;;;;;;;;;5048595;28;20291;-65
2023/03/31 10:35:50;;;;;;;2.97;1.23;;;;;;;;;;5050886;28;20206;-62
2023/03/31 10:38:23;;;;;;;4.20;1.73;;;;;;;;;;5037562;28;20247;-63
2023/03/31 10:40:52;;;;;;;2.63;1.13;;;;;;;;;;5041760;28;20685;-63
2023/03/31 10:43:21;;;;;;;4.27;1.23;;;;;;;;;;5058313;28;20205;-64
2023/03/31 10:45:49;;;;;;;2.60;1.00;;;;;;;;;;5055219;28;20293;-63
2023/03/31 10:48:18;;;;;;;3.53;1.20;;;;;;;;;;5050085;28;20295;-63
2023/03/31 10:50:47;;;;;;;2.83;1.10;;;;;;;;;;5048750;28;20317;-63
2023/03/31 10:53:15;;;;;;;4.63;1.20;;;;;;;;;;5048594;28;20287;-65
2023/03/31 10:55:49;;;;;;;1.83;1.20;;;;;;;;;;5044895;28;20295;-65
2023/03/31 10:58:31;;;;;;;2.22;1.10;;;;;;;;;;5042980;28;20703;-64
2023/03/31 11:01:06;;;;;;;3.08;1.65;;;;;;;;;;5049460;28;20282;-63
2023/03/31 11:03:33;;;;;;;3.47;1.37;;;;;;;;;;5049155;28;20691;-64
2023/03/31 11:06:04;;;;;;;2.63;1.25;;;;;;;;;;5057892;28;20216;-64
2023/03/31 11:08:50;;;;;;;4.57;1.48;;;;;;;;;;5042234;28;20253;-64
2023/03/31 11:11:44;;;;;;;4.00;1.42;;;;;;;;;;5051797;28;20297;-64
2023/03/31 11:14:18;;;;;;;2.53;1.20;;;;;;;;;;5041605;28;20205;-64
2023/03/31 11:16:45;;;;;;;3.97;1.60;;;;;;;;;;5040560;28;20884;-64
2023/03/31 11:19:22;;;;;;;2.83;1.75;;;;;;;;;;5042845;28;20213;-64
2023/03/31 11:21:49;;;;;;;3.38;1.70;;;;;;;;;;5043523;28;21666;-64
2023/03/31 11:24:23;;;;;;;4.97;1.40;;;;;;;;;;5047246;28;20228;-63
2023/03/31 11:27:02;;;;;;;4.55;1.30;;;;;;;;;;5039777;28;20305;-65
2023/03/31 11:29:34;;;;;;;3.63;1.50;;;;;;;;;;5046213;28;20224;-64
2023/03/31 11:32:02;;;;;;;6.10;1.60;;;;;;;;;;5046214;28;20243;-64
2023/03/31 11:34:48;;;;;;;4.55;1.23;;;;;;;;;;5052687;28;20284;-63
2023/03/31 11:37:40;;;;;;;1.73;0.70;;;;;;;;;;5068354;28;20224;-64
2023/03/31 11:40:26;;;;;;;1.63;1.30;;;;;;;;;;5046111;28;20813;-64
2023/03/31 11:43:00;;;;;;;2.60;1.90;;;;;;;;;;5067372;28;20213;-64
2023/03/31 11:45:29;;;;;;;2.37;1.33;;;;;;;;;;5070397;28;20275;-65
2023/03/31 11:48:02;;;;;;;1.97;1.53;;;;;;;;;;5068283;28;20410;-63
2023/03/31 11:50:37;;;;;;;4.30;1.90;;;;;;;;;;5052560;28;20261;-63
2023/03/31 11:53:23;;;;;;;1.20;1.10;;;;;;;;;;5048888;28;20206;-63
2023/03/31 11:55:53;;;;;;;0.80;0.80;;;;;;;;;;5049282;28;20440;-65
2023/03/31 11:58:24;;;;;;;0.97;0.83;;;;;;;;;;5067444;28;20236;-64
2023/03/31 12:00:56;;;;;;;1.20;1.10;;;;;;;;;;5050784;28;20283;-65
2023/03/31 12:03:43;;;;;;;1.37;0.70;;;;;;;;;;5047591;28;20296;-64
2023/03/31 12:06:18;;;;;;;1.23;0.80;;;;;;;;;;5062214;28;20229;-63
2023/03/31 12:08:50;;;;;;;1.07;1.07;;;;;;;;;;5046159;28;20738;-64
2023/03/31 12:11:21;;;;;;;1.30;1.20;;;;;;;;;;5060557;28;20958;-64
2023/03/31 12:13:57;;;;;;;1.50;1.20;;;;;;;;;;5043034;28;20236;-63
2023/03/31 12:16:37;;;;;;;2.87;1.10;;;;;;;;;;5049304;28;20317;-63
2023/03/31 12:19:13;;;;;;;3.67;1.23;;;;;;;;;;5054193;28;20784;-64
2023/03/31 12:21:43;;;;;;;2.07;0.80;;;;;;;;;;5050236;28;20262;-61
2023/03/31 12:24:12;;;;;;;1.80;1.03;;;;;;;;;;5060873;28;20278;-64
2023/03/31 12:26:52;;;;;;;2.37;1.17;;;;;;;;;;5056060;28;20254;-62
2023/03/31 12:29:26;;;;;;;2.07;0.87;;;;;;;;;;5067149;28;20236;-64
2023/03/31 12:31:56;;;;;;;2.50;0.90;;;;;;;;;;5047899;28;20271;-63
2023/03/31 12:34:24;;;;;;;2.03;0.90;;;;;;;;;;5065246;28;20209;-63
2023/03/31 12:37:10;;;;;;;2.37;0.93;;;;;;;;;;5059381;28;20277;-63
2023/03/31 12:39:57;;;;;;;2.73;1.00;;;;;;;;;;5036002;28;20244;-63
2023/03/31 12:42:25;;;;;;;1.80;1.00;;;;;;;;;;5012628;28;20244;-64
2023/03/31 12:44:55;;;;;;;1.80;1.00;;;;;;;;;;5066065;28;20285;-64
2023/03/31 12:47:38;;;;;;;1.33;1.10;;;;;;;;;;5047465;28;20254;-66
2023/03/31 12:50:09;;;;;;;3.77;1.80;;;;;;;;;;5044743;28;20220;-64
2023/03/31 12:52:50;;;;;;;3.00;1.20;;;;;;;;;;5050902;28;20855;-63
2023/03/31 12:55:29;;;;;;;1.87;1.37;;;;;;;;;;5042459;28;20216;-64
2023/03/31 12:58:28;;;;;;;4.30;1.30;;;;;;;;;;5023822;28;20247;-65
2023/03/31 13:01:05;;;;;;;1.77;1.27;;;;;;;;;;5047651;28;20204;-65
2023/03/31 13:03:33;;;;;;;4.53;1.77;;;;;;;;;;5038233;28;20205;-65
2023/03/31 13:06:05;;;;;;;4.43;1.17;;;;;;;;;;5039120;28;20216;-65
2023/03/31 13:08:54;;;;;;;3.50;1.60;;;;;;;;;;5055887;28;20229;-64
2023/03/31 13:11:23;;;;;;;3.90;1.57;;;;;;;;;;5031087;28;20224;-65
2023/03/31 13:13:56;;;;;;;2.47;1.30;;;;;;;;;;5041361;28;20193;-64
2023/03/31 13:16:45;;;;;;;3.13;1.60;;;;;;;;;;5046178;28;20541;-64
2023/03/31 13:19:23;;;;;;;2.73;1.40;;;;;;;;;;5053545;28;20212;-64
2023/03/31 13:21:52;;;;;;;4.63;1.10;;;;;;;;;;5066655;28;20216;-64
2023/03/31 13:24:23;;;;;;;3.83;1.20;;;;;;;;;;5048097;28;20633;-64
2023/03/31 13:26:58;;;;;;;2.47;1.10;;;;;;;;;;5049519;28;20532;-65
2023/03/31 13:29:43;;;;;;;1.90;1.10;;;;;;;;;;5049268;28;20693;-64
2023/03/31 13:32:21;;;;;;;2.07;1.00;;;;;;;;;;5047692;28;20560;-64
2023/03/31 13:34:52;;;;;;;1.63;1.13;;;;;;;;;;5051935;28;20205;-64
2023/03/31 13:37:43;;;;;;;3.03;1.10;;;;;;;;;;5051752;28;20327;-65
2023/03/31 13:40:30;;;;;;;1.77;1.03;;;;;;;;;;5049422;28;20300;-65
2023/03/31 13:43:07;;;;;;;3.20;1.10;;;;;;;;;;5071005;28;20233;-64
2023/03/31 13:45:38;;;;;;;3.00;1.27;;;;;;;;;;5047348;28;20205;-64
2023/03/31 13:48:06;;;;;;;3.93;1.37;;;;;;;;;;5046239;28;20244;-64
2023/03/31 13:50:36;;;;;;;6.57;3.37;;;;;;;;;;5047739;28;20216;-64
2023/03/31 13:53:25;;;;;;;4.33;1.53;;;;;;;;;;5043053;28;20235;-65
2023/03/31 13:55:52;;;;;;;3.20;1.40;;;;;;;;;;5054517;28;20228;-64
2023/03/31 13:58:26;;;;;;;5.03;1.30;;;;;;;;;;5058289;28;20316;-65
2023/03/31 14:01:00;;;;;;;2.97;1.63;;;;;;;;;;5051735;28;20642;-65
2023/03/31 14:03:34;;;;;;;3.17;1.30;;;;;;;;;;5051081;28;20209;-64
2023/03/31 14:06:03;;;;;;;3.50;1.30;;;;;;;;;;5052099;28;20260;-64
2023/03/31 14:08:40;;;;;;;3.37;1.10;;;;;;;;;;5067811;28;20721;-65
2023/03/31 14:11:16;;;;;;;2.67;1.40;;;;;;;;;;5050403;28;20231;-65
2023/03/31 14:13:44;;;;;;;2.80;1.40;;;;;;;;;;5050870;28;21198;-65
2023/03/31 14:16:12;;;;;;;2.70;1.40;;;;;;;;;;5056372;28;20293;-64
2023/03/31 14:18:45;;;;;;;4.30;1.50;;;;;;;;;;5065972;28;20205;-65
2023/03/31 14:21:20;;;;;;;2.97;1.47;;;;;;;;;;5069363;28;20642;-63
2023/03/31 14:24:06;;;;;;;3.37;1.20;;;;;;;;;;5061852;28;20234;-64
2023/03/31 14:26:52;;;;;;;5.37;1.70;;;;;;;;;;5066766;28;20232;-65
2023/03/31 14:29:38;;;;;;;2.27;1.10;;;;;;;;;;5066904;28;20229;-64
2023/03/31 14:32:24;;;;;;;3.17;1.10;;;;;;;;;;5067477;28;20205;-65
2023/03/31 14:35:12;;;;;;;2.10;1.00;;;;;;;;;;5068538;28;20272;-65
2023/03/31 14:37:39;;;;;;;1.50;0.90;;;;;;;;;;5050024;28;20235;-64
2023/03/31 14:40:12;;;;;;;1.77;1.10;;;;;;;;;;5056362;28;20792;-66
2023/03/31 14:42:40;;;;;;;4.53;1.27;;;;;;;;;;5044748;28;20204;-66
2023/03/31 14:45:16;;;;;;;1.63;0.90;;;;;;;;;;5069676;28;20213;-67
2023/03/31 14:47:53;;;;;;;2.37;0.97;;;;;;;;;;5051378;28;20320;-66
2023/03/31 14:50:20;;;;;;;2.33;1.30;;;;;;;;;;5049362;28;20296;-66
2023/03/31 14:52:52;;;;;;;7.17;3.30;;;;;;;;;;5055839;28;20217;-64
2023/03/31 14:55:22;;;;;;;9.57;4.40;;;;;;;;;;5065184;28;20202;-64
2023/03/31 14:57:56;;;;;;;0.80;0.80;;;;;;;;;;5063782;28;20710;-64
2023/03/31 15:00:28;;;;;;;2.27;1.00;;;;;;;;;;5041734;28;20353;-64
2023/03/31 15:02:56;;;;;;;1.00;0.90;;;;;;;;;;5052636;28;20208;-65
2023/03/31 15:05:24;;;;;;;1.40;1.00;;;;;;;;;;5061591;28;20236;-65
2023/03/31 15:07:51;;;;;;;0.80;0.80;;;;;;;;;;5053967;28;20233;-65